sensor_id;sensor_type;location;lat;lon;timestamp;pressure;altitude;pressure_sealevel;temperature;humidity
23433;BME280;41331;45.412;10.992;2022-09-09T00:00:47;100530.91;;;22.15;80.16
23433;BME280;41331;45.412;10.992;2022-09-09T00:03:19;100527.75;;;22.09;79.69
23433;BME280;41331;45.412;10.992;2022-09-09T00:06:08;100537.66;;;22.07;79.54
23433;BME280;41331;45.412;10.992;2022-09-09T00:11:24;100532.16;;;22.00;78.00
23433;BME280;41331;45.412;10.992;2022-09-09T00:14:01;100530.94;;;22.01;77.49
23433;BME280;41331;45.412;10.992;2022-09-09T00:16:32;100529.38;;;22.00;77.24
23433;BME280;41331;45.412;10.992;2022-09-09T00:19:07;100524.63;;;22.00;77.51
23433;BME280;41331;45.412;10.992;2022-09-09T00:21:37;100531.28;;;22.17;77.09
23433;BME280;41331;45.412;10.992;2022-09-09T00:24:26;100522.53;;;22.26;74.13
23433;BME280;41331;45.412;10.992;2022-09-09T00:27:00;100531.94;;;22.39;72.79
23433;BME280;41331;45.412;10.992;2022-09-09T00:29:34;100528.38;;;22.38;71.03
23433;BME280;41331;45.412;10.992;2022-09-09T00:32:15;100534.25;;;22.47;71.19
23433;BME280;41331;45.412;10.992;2022-09-09T00:34:55;100527.53;;;22.45;72.35
23433;BME280;41331;45.412;10.992;2022-09-09T00:37:24;100532.84;;;22.18;73.04
23433;BME280;41331;45.412;10.992;2022-09-09T00:39:58;100534.06;;;22.17;72.87
23433;BME280;41331;45.412;10.992;2022-09-09T00:42:32;100532.47;;;22.09;72.99
23433;BME280;41331;45.412;10.992;2022-09-09T00:47:53;100535.72;;;22.00;73.99
23433;BME280;41331;45.412;10.992;2022-09-09T00:50:26;100538.06;;;22.05;73.77
23433;BME280;41331;45.412;10.992;2022-09-09T00:58:10;100529.69;;;22.09;73.38
23433;BME280;41331;45.412;10.992;2022-09-09T01:00:44;100530.13;;;22.04;74.49
23433;BME280;41331;45.412;10.992;2022-09-09T01:03:22;100528.97;;;22.05;74.20
23433;BME280;41331;45.412;10.992;2022-09-09T01:14:29;100530.53;;;22.06;74.63
23433;BME280;41331;45.412;10.992;2022-09-09T01:17:05;100513.88;;;22.13;74.69
23433;BME280;41331;45.412;10.992;2022-09-09T01:27:58;100518.22;;;22.17;78.34
23433;BME280;41331;45.412;10.992;2022-09-09T01:30:27;100510.72;;;22.14;77.89
23433;BME280;41331;45.412;10.992;2022-09-09T01:32:58;100515.47;;;22.07;77.70
23433;BME280;41331;45.412;10.992;2022-09-09T01:38:20;100500.81;;;22.10;77.49
23433;BME280;41331;45.412;10.992;2022-09-09T01:40:50;100500.06;;;21.98;77.22
23433;BME280;41331;45.412;10.992;2022-09-09T01:43:23;100497.72;;;21.93;76.99
23433;BME280;41331;45.412;10.992;2022-09-09T01:45:54;100496.56;;;21.94;76.51
23433;BME280;41331;45.412;10.992;2022-09-09T01:48:24;100489.47;;;21.86;75.79
23433;BME280;41331;45.412;10.992;2022-09-09T01:51:01;100495.38;;;21.88;74.94
23433;BME280;41331;45.412;10.992;2022-09-09T01:53:30;100493.28;;;22.10;73.26
23433;BME280;41331;45.412;10.992;2022-09-09T01:56:40;100488.19;;;21.98;73.38
23433;BME280;41331;45.412;10.992;2022-09-09T01:59:23;100488.25;;;21.94;73.18
23433;BME280;41331;45.412;10.992;2022-09-09T02:07:47;100485.97;;;21.68;74.08
23433;BME280;41331;45.412;10.992;2022-09-09T02:10:50;100486.31;;;21.81;73.28
23433;BME280;41331;45.412;10.992;2022-09-09T02:13:34;100483.06;;;22.00;72.62
23433;BME280;41331;45.412;10.992;2022-09-09T02:16:52;100482.78;;;21.80;73.39
23433;BME280;41331;45.412;10.992;2022-09-09T02:19:23;100484.69;;;21.87;73.15
23433;BME280;41331;45.412;10.992;2022-09-09T02:22:08;100492.31;;;21.68;73.97
23433;BME280;41331;45.412;10.992;2022-09-09T02:24:38;100482.78;;;21.77;73.86
23433;BME280;41331;45.412;10.992;2022-09-09T02:27:17;100475.66;;;21.76;74.31
23433;BME280;41331;45.412;10.992;2022-09-09T02:29:46;100486.31;;;21.84;73.96
23433;BME280;41331;45.412;10.992;2022-09-09T02:32:23;100473.28;;;21.78;73.88
23433;BME280;41331;45.412;10.992;2022-09-09T02:35:19;100474.50;;;21.69;74.26
23433;BME280;41331;45.412;10.992;2022-09-09T02:37:45;100480.44;;;21.71;74.25
23433;BME280;41331;45.412;10.992;2022-09-09T02:40:17;100483.56;;;21.77;74.19
23433;BME280;41331;45.412;10.992;2022-09-09T02:42:49;100490.72;;;21.71;74.74
23433;BME280;41331;45.412;10.992;2022-09-09T02:45:20;100494.28;;;21.71;74.84
23433;BME280;41331;45.412;10.992;2022-09-09T02:50:35;100499.06;;;21.64;74.96
23433;BME280;41331;45.412;10.992;2022-09-09T02:53:13;100505.78;;;21.66;74.93
23433;BME280;41331;45.412;10.992;2022-09-09T02:55:50;100499.00;;;21.78;74.07
23433;BME280;41331;45.412;10.992;2022-09-09T02:58:23;100503.78;;;21.74;74.79
23433;BME280;41331;45.412;10.992;2022-09-09T03:00:57;100498.25;;;21.67;75.63
23433;BME280;41331;45.412;10.992;2022-09-09T03:03:26;100490.38;;;21.62;75.84
23433;BME280;41331;45.412;10.992;2022-09-09T03:05:55;100488.00;;;21.60;75.89
23433;BME280;41331;45.412;10.992;2022-09-09T03:08:25;100484.91;;;21.40;76.91
23433;BME280;41331;45.412;10.992;2022-09-09T03:10:55;100485.69;;;21.37;77.31
23433;BME280;41331;45.412;10.992;2022-09-09T03:13:27;100486.13;;;21.36;77.32
23433;BME280;41331;45.412;10.992;2022-09-09T03:15:57;100481.38;;;21.33;77.75
23433;BME280;41331;45.412;10.992;2022-09-09T03:18:24;100480.19;;;21.27;77.87
23433;BME280;41331;45.412;10.992;2022-09-09T03:20:53;100469.09;;;21.27;78.68
23433;BME280;41331;45.412;10.992;2022-09-09T03:23:22;100466.38;;;21.30;78.85
23433;BME280;41331;45.412;10.992;2022-09-09T03:25:50;100464.38;;;21.34;79.69
23433;BME280;41331;45.412;10.992;2022-09-09T03:28:25;100475.00;;;21.43;79.39
23433;BME280;41331;45.412;10.992;2022-09-09T03:31:01;100467.09;;;21.41;79.35
23433;BME280;41331;45.412;10.992;2022-09-09T03:33:33;100460.75;;;21.48;80.32
23433;BME280;41331;45.412;10.992;2022-09-09T03:36:01;100465.47;;;21.55;80.73
23433;BME280;41331;45.412;10.992;2022-09-09T03:38:29;100448.00;;;21.68;80.56
23433;BME280;41331;45.412;10.992;2022-09-09T03:40:56;100449.09;;;21.85;80.31
23433;BME280;41331;45.412;10.992;2022-09-09T03:43:28;100448.53;;;22.15;79.65
23433;BME280;41331;45.412;10.992;2022-09-09T03:45:56;100451.22;;;22.30;79.00
23433;BME280;41331;45.412;10.992;2022-09-09T03:48:27;100453.13;;;22.40;79.03
23433;BME280;41331;45.412;10.992;2022-09-09T03:50:56;100450.81;;;22.31;80.15
23433;BME280;41331;45.412;10.992;2022-09-09T03:53:25;100445.34;;;22.17;80.71
23433;BME280;41331;45.412;10.992;2022-09-09T03:55:54;100451.44;;;22.49;79.47
23433;BME280;41331;45.412;10.992;2022-09-09T03:58:26;100453.13;;;22.36;80.23
23433;BME280;41331;45.412;10.992;2022-09-09T04:01:01;100450.81;;;22.28;80.81
23433;BME280;41331;45.412;10.992;2022-09-09T04:03:29;100443.41;;;22.07;81.32
23433;BME280;41331;45.412;10.992;2022-09-09T04:05:59;100450.63;;;21.93;82.31
23433;BME280;41331;45.412;10.992;2022-09-09T04:08:29;100447.06;;;21.93;82.60
23433;BME280;41331;45.412;10.992;2022-09-09T04:11:01;100433.28;;;21.82;83.45
23433;BME280;41331;45.412;10.992;2022-09-09T04:13:37;100445.63;;;21.70;83.83
23433;BME280;41331;45.412;10.992;2022-09-09T04:16:12;100435.75;;;21.62;84.86
23433;BME280;41331;45.412;10.992;2022-09-09T04:18:43;100440.56;;;21.51;85.73
23433;BME280;41331;45.412;10.992;2022-09-09T04:21:12;100426.38;;;21.38;86.65
23433;BME280;41331;45.412;10.992;2022-09-09T04:23:40;100441.41;;;21.44;87.03
23433;BME280;41331;45.412;10.992;2022-09-09T04:26:08;100441.00;;;21.42;87.03
23433;BME280;41331;45.412;10.992;2022-09-09T04:28:37;100438.69;;;21.34;87.46
23433;BME280;41331;45.412;10.992;2022-09-09T04:31:17;100444.19;;;21.37;87.89
23433;BME280;41331;45.412;10.992;2022-09-09T04:33:47;100444.59;;;21.39;88.02
23433;BME280;41331;45.412;10.992;2022-09-09T04:36:16;100438.53;;;21.66;86.99
23433;BME280;41331;45.412;10.992;2022-09-09T04:38:47;100444.00;;;21.77;86.64
23433;BME280;41331;45.412;10.992;2022-09-09T04:41:16;100441.22;;;21.77;86.30
23433;BME280;41331;45.412;10.992;2022-09-09T04:43:48;100432.81;;;21.94;86.21
23433;BME280;41331;45.412;10.992;2022-09-09T04:46:16;100439.19;;;21.88;86.53
23433;BME280;41331;45.412;10.992;2022-09-09T04:48:44;100430.84;;;21.95;86.19
23433;BME280;41331;45.412;10.992;2022-09-09T04:51:13;100431.56;;;22.03;86.08
23433;BME280;41331;45.412;10.992;2022-09-09T04:53:43;100425.28;;;21.95;86.02
23433;BME280;41331;45.412;10.992;2022-09-09T04:56:14;100426.78;;;22.07;85.87
23433;BME280;41331;45.412;10.992;2022-09-09T04:58:51;100431.97;;;22.05;85.65
23433;BME280;41331;45.412;10.992;2022-09-09T05:01:23;100426.50;;;21.90;86.74
23433;BME280;41331;45.412;10.992;2022-09-09T05:03:55;100429.56;;;22.03;85.95
23433;BME280;41331;45.412;10.992;2022-09-09T05:06:23;100439.78;;;22.20;85.13
23433;BME280;41331;45.412;10.992;2022-09-09T05:08:54;100443.69;;;22.27;84.46
23433;BME280;41331;45.412;10.992;2022-09-09T05:11:27;100447.28;;;22.23;84.81
23433;BME280;41331;45.412;10.992;2022-09-09T05:14:07;100451.22;;;22.26;84.84
23433;BME280;41331;45.412;10.992;2022-09-09T05:16:35;100452.00;;;22.30;85.09
23433;BME280;41331;45.412;10.992;2022-09-09T05:19:02;100449.94;;;22.38;84.43
23433;BME280;41331;45.412;10.992;2022-09-09T05:21:41;100451.56;;;22.35;84.26
23433;BME280;41331;45.412;10.992;2022-09-09T05:24:11;100453.13;;;22.36;84.76
23433;BME280;41331;45.412;10.992;2022-09-09T05:26:39;100455.13;;;22.36;84.87
23433;BME280;41331;45.412;10.992;2022-09-09T05:29:07;100459.81;;;22.42;84.54
23433;BME280;41331;45.412;10.992;2022-09-09T05:31:36;100464.13;;;22.51;84.41
23433;BME280;41331;45.412;10.992;2022-09-09T05:34:08;100447.91;;;22.45;84.31
23433;BME280;41331;45.412;10.992;2022-09-09T05:36:36;100466.38;;;22.63;83.67
23433;BME280;41331;45.412;10.992;2022-09-09T05:39:04;100465.47;;;22.77;82.30
23433;BME280;41331;45.412;10.992;2022-09-09T05:41:32;100465.44;;;22.80;82.06
23433;BME280;41331;45.412;10.992;2022-09-09T05:44:03;100474.06;;;22.93;81.60
23433;BME280;41331;45.412;10.992;2022-09-09T05:46:35;100472.06;;;22.93;82.05
23433;BME280;41331;45.412;10.992;2022-09-09T05:49:02;100481.59;;;22.92;82.67
23433;BME280;41331;45.412;10.992;2022-09-09T05:51:33;100490.75;;;22.86;83.18
23433;BME280;41331;45.412;10.992;2022-09-09T05:54:09;100484.41;;;22.89;82.98
23433;BME280;41331;45.412;10.992;2022-09-09T05:56:41;100487.47;;;22.98;83.13
23433;BME280;41331;45.412;10.992;2022-09-09T05:59:09;100493.16;;;23.25;82.27
23433;BME280;41331;45.412;10.992;2022-09-09T06:01:38;100498.91;;;23.45;81.08
23433;BME280;41331;45.412;10.992;2022-09-09T06:04:18;100494.06;;;23.83;79.00
23433;BME280;41331;45.412;10.992;2022-09-09T06:06:52;100503.31;;;24.03;78.46
23433;BME280;41331;45.412;10.992;2022-09-09T06:09:21;100485.84;;;24.30;76.78
23433;BME280;41331;45.412;10.992;2022-09-09T06:11:49;100477.31;;;24.91;73.68
23433;BME280;41331;45.412;10.992;2022-09-09T06:14:19;100481.72;;;25.32;72.40
23433;BME280;41331;45.412;10.992;2022-09-09T06:16:48;100481.44;;;25.86;68.67
23433;BME280;41331;45.412;10.992;2022-09-09T06:19:22;100494.66;;;26.34;65.62
23433;BME280;41331;45.412;10.992;2022-09-09T06:21:51;100487.53;;;26.50;64.59
23433;BME280;41331;45.412;10.992;2022-09-09T06:24:18;100496.75;;;26.79;63.06
23433;BME280;41331;45.412;10.992;2022-09-09T06:26:47;100483.34;;;26.74;63.52
23433;BME280;41331;45.412;10.992;2022-09-09T06:29:27;100481.09;;;26.53;63.73
23433;BME280;41331;45.412;10.992;2022-09-09T06:31:55;100476.75;;;27.14;60.71
23433;BME280;41331;45.412;10.992;2022-09-09T06:34:25;100487.94;;;27.55;60.06
23433;BME280;41331;45.412;10.992;2022-09-09T06:36:56;100485.94;;;29.40;54.12
23433;BME280;41331;45.412;10.992;2022-09-09T06:39:25;100482.56;;;29.98;51.45
23433;BME280;41331;45.412;10.992;2022-09-09T06:41:54;100480.47;;;31.25;48.00
23433;BME280;41331;45.412;10.992;2022-09-09T06:44:40;100478.13;;;32.69;44.84
23433;BME280;41331;45.412;10.992;2022-09-09T06:47:12;100467.84;;;32.57;44.83
23433;BME280;41331;45.412;10.992;2022-09-09T06:49:41;100477.28;;;33.16;43.44
23433;BME280;41331;45.412;10.992;2022-09-09T06:52:14;100472.63;;;33.87;41.10
23433;BME280;41331;45.412;10.992;2022-09-09T06:54:42;100472.78;;;34.89;39.79
23433;BME280;41331;45.412;10.992;2022-09-09T06:57:09;100468.75;;;34.35;40.00
23433;BME280;41331;45.412;10.992;2022-09-09T06:59:57;100475.63;;;34.13;40.33
23433;BME280;41331;45.412;10.992;2022-09-09T07:02:24;100475.06;;;35.06;38.77
23433;BME280;41331;45.412;10.992;2022-09-09T07:04:53;100470.59;;;34.99;38.73
23433;BME280;41331;45.412;10.992;2022-09-09T07:07:20;100479.06;;;32.66;42.97
23433;BME280;41331;45.412;10.992;2022-09-09T07:09:48;100469.00;;;32.74;42.35
23433;BME280;41331;45.412;10.992;2022-09-09T07:12:16;100473.97;;;31.98;44.43
23433;BME280;41331;45.412;10.992;2022-09-09T07:14:50;100471.91;;;31.99;44.09
23433;BME280;41331;45.412;10.992;2022-09-09T07:17:19;100467.53;;;31.09;45.21
23433;BME280;41331;45.412;10.992;2022-09-09T07:19:47;100467.84;;;31.48;44.89
23433;BME280;41331;45.412;10.992;2022-09-09T07:22:16;100463.97;;;33.32;41.03
23433;BME280;41331;45.412;10.992;2022-09-09T07:24:45;100461.06;;;33.70;39.69
23433;BME280;41331;45.412;10.992;2022-09-09T07:27:14;100454.00;;;33.60;39.99
23433;BME280;41331;45.412;10.992;2022-09-09T07:29:42;100454.31;;;35.66;37.14
23433;BME280;41331;45.412;10.992;2022-09-09T07:32:10;100455.66;;;34.37;38.91
23433;BME280;41331;45.412;10.992;2022-09-09T07:34:38;100450.56;;;34.97;37.90
23433;BME280;41331;45.412;10.992;2022-09-09T07:37:05;100448.56;;;33.92;39.71
23433;BME280;41331;45.412;10.992;2022-09-09T07:39:34;100459.97;;;33.97;39.69
23433;BME280;41331;45.412;10.992;2022-09-09T07:42:02;100455.41;;;32.87;41.59
23433;BME280;41331;45.412;10.992;2022-09-09T07:44:29;100456.63;;;32.71;42.69
23433;BME280;41331;45.412;10.992;2022-09-09T07:47:10;100450.13;;;34.08;40.00
23433;BME280;41331;45.412;10.992;2022-09-09T07:49:47;100442.63;;;35.01;38.48
23433;BME280;41331;45.412;10.992;2022-09-09T07:52:20;100449.94;;;34.32;39.43
23433;BME280;41331;45.412;10.992;2022-09-09T07:54:53;100447.56;;;35.58;37.24
23433;BME280;41331;45.412;10.992;2022-09-09T07:57:20;100449.47;;;34.74;38.46
23433;BME280;41331;45.412;10.992;2022-09-09T07:59:49;100442.13;;;35.28;37.24
23433;BME280;41331;45.412;10.992;2022-09-09T08:02:17;100452.13;;;35.82;36.39
23433;BME280;41331;45.412;10.992;2022-09-09T08:04:45;100457.22;;;35.20;37.35
23433;BME280;41331;45.412;10.992;2022-09-09T08:07:14;100451.19;;;35.64;36.14
23433;BME280;41331;45.412;10.992;2022-09-09T08:09:50;100450.06;;;36.19;35.75
23433;BME280;41331;45.412;10.992;2022-09-09T08:12:22;100469.19;;;36.78;34.48
23433;BME280;41331;45.412;10.992;2022-09-09T08:14:50;100465.25;;;35.27;36.88
23433;BME280;41331;45.412;10.992;2022-09-09T08:17:22;100471.97;;;33.78;39.63
23433;BME280;41331;45.412;10.992;2022-09-09T08:19:50;100467.25;;;34.74;38.07
23433;BME280;41331;45.412;10.992;2022-09-09T08:22:21;100467.31;;;36.64;35.10
23433;BME280;41331;45.412;10.992;2022-09-09T08:24:50;100470.03;;;35.15;37.03
23433;BME280;41331;45.412;10.992;2022-09-09T08:27:18;100466.03;;;35.53;36.66
23433;BME280;41331;45.412;10.992;2022-09-09T08:29:46;100478.88;;;34.62;38.51
23433;BME280;41331;45.412;10.992;2022-09-09T08:32:14;100480.28;;;35.39;37.17
23433;BME280;41331;45.412;10.992;2022-09-09T08:34:41;100476.09;;;36.23;35.60
23433;BME280;41331;45.412;10.992;2022-09-09T08:37:16;100472.47;;;35.54;37.34
23433;BME280;41331;45.412;10.992;2022-09-09T08:39:44;100474.56;;;36.22;35.73
23433;BME280;41331;45.412;10.992;2022-09-09T08:42:28;100472.28;;;36.32;35.48
23433;BME280;41331;45.412;10.992;2022-09-09T08:45:12;100477.84;;;37.34;34.11
23433;BME280;41331;45.412;10.992;2022-09-09T08:50:26;100464.03;;;36.82;34.70
23433;BME280;41331;45.412;10.992;2022-09-09T08:53:15;100457.44;;;37.14;34.32
23433;BME280;41331;45.412;10.992;2022-09-09T08:55:52;100465.78;;;37.68;33.32
23433;BME280;41331;45.412;10.992;2022-09-09T08:58:34;100448.13;;;38.37;32.30
23433;BME280;41331;45.412;10.992;2022-09-09T09:09:42;100458.94;;;38.49;32.30
23433;BME280;41331;45.412;10.992;2022-09-09T09:12:22;100461.03;;;37.14;34.57
23433;BME280;41331;45.412;10.992;2022-09-09T09:14:51;100468.09;;;37.47;33.05
23433;BME280;41331;45.412;10.992;2022-09-09T09:17:21;100460.00;;;37.00;33.74
23433;BME280;41331;45.412;10.992;2022-09-09T09:19:51;100465.72;;;37.23;34.01
23433;BME280;41331;45.412;10.992;2022-09-09T09:22:47;100460.44;;;36.88;34.75
23433;BME280;41331;45.412;10.992;2022-09-09T09:25:27;100466.28;;;37.72;33.20
23433;BME280;41331;45.412;10.992;2022-09-09T09:28:07;100462.34;;;38.25;32.37
23433;BME280;41331;45.412;10.992;2022-09-09T09:30:44;100459.31;;;37.56;34.93
23433;BME280;41331;45.412;10.992;2022-09-09T09:35:54;100450.22;;;37.18;34.85
23433;BME280;41331;45.412;10.992;2022-09-09T09:38:24;100444.31;;;37.27;33.73
23433;BME280;41331;45.412;10.992;2022-09-09T09:41:12;100442.13;;;35.28;37.61
23433;BME280;41331;45.412;10.992;2022-09-09T09:43:41;100449.50;;;34.18;38.97
23433;BME280;41331;45.412;10.992;2022-09-09T09:46:22;100459.16;;;32.69;42.07
23433;BME280;41331;45.412;10.992;2022-09-09T09:49:03;100447.41;;;32.47;42.37
23433;BME280;41331;45.412;10.992;2022-09-09T09:51:33;100444.19;;;32.06;43.98
23433;BME280;41331;45.412;10.992;2022-09-09T09:56:46;100463.28;;;32.83;43.67
23433;BME280;41331;45.412;10.992;2022-09-09T10:04:46;100536.34;;;26.42;54.16
23433;BME280;41331;45.412;10.992;2022-09-09T10:07:19;100536.91;;;24.94;64.90
23433;BME280;41331;45.412;10.992;2022-09-09T10:09:53;100547.66;;;23.49;76.31
23433;BME280;41331;45.412;10.992;2022-09-09T10:12:43;100534.69;;;22.42;85.32
23433;BME280;41331;45.412;10.992;2022-09-09T10:15:22;100575.88;;;21.49;90.79
23433;BME280;41331;45.412;10.992;2022-09-09T10:18:23;100610.66;;;20.93;94.72
23433;BME280;41331;45.412;10.992;2022-09-09T10:21:06;100623.72;;;21.14;91.90
23433;BME280;41331;45.412;10.992;2022-09-09T10:27:09;100607.06;;;21.75;90.70
23433;BME280;41331;45.412;10.992;2022-09-09T10:32:34;100582.78;;;22.11;91.56
23433;BME280;41331;45.412;10.992;2022-09-09T10:35:14;100582.38;;;22.19;91.88
23433;BME280;41331;45.412;10.992;2022-09-09T10:40:36;100582.78;;;22.07;90.81
23433;BME280;41331;45.412;10.992;2022-09-09T10:45:45;100581.66;;;21.90;85.65
23433;BME280;41331;45.412;10.992;2022-09-09T10:53:53;100570.53;;;22.05;86.49
23433;BME280;41331;45.412;10.992;2022-09-09T10:56:27;100557.53;;;21.91;86.71
23433;BME280;41331;45.412;10.992;2022-09-09T10:59:09;100549.88;;;22.20;85.44
23433;BME280;41331;45.412;10.992;2022-09-09T11:01:55;100545.53;;;22.08;85.98
23433;BME280;41331;45.412;10.992;2022-09-09T11:13:03;100537.97;;;22.27;82.70
23433;BME280;41331;45.412;10.992;2022-09-09T11:15:41;100519.81;;;22.08;85.57
23433;BME280;41331;45.412;10.992;2022-09-09T11:18:19;100525.00;;;21.98;83.99
23433;BME280;41331;45.412;10.992;2022-09-09T11:20:51;100521.44;;;21.98;84.69
23433;BME280;41331;45.412;10.992;2022-09-09T11:23:27;100512.72;;;22.03;83.29
23433;BME280;41331;45.412;10.992;2022-09-09T11:26:01;100511.25;;;22.51;82.68
23433;BME280;41331;45.412;10.992;2022-09-09T11:31:32;100502.66;;;22.90;82.74
23433;BME280;41331;45.412;10.992;2022-09-09T11:40:16;100494.81;;;23.87;81.63
23433;BME280;41331;45.412;10.992;2022-09-09T11:42:47;100489.66;;;24.67;73.99
23433;BME280;41331;45.412;10.992;2022-09-09T11:45:26;100485.03;;;25.03;71.06
23433;BME280;41331;45.412;10.992;2022-09-09T11:48:00;100479.44;;;25.07;70.52
23433;BME280;41331;45.412;10.992;2022-09-09T11:50:37;100490.78;;;24.93;67.70
23433;BME280;41331;45.412;10.992;2022-09-09T11:53:21;100477.94;;;25.22;68.48
23433;BME280;41331;45.412;10.992;2022-09-09T11:56:12;100476.22;;;25.68;64.72
23433;BME280;41331;45.412;10.992;2022-09-09T11:58:43;100480.50;;;26.25;64.15
23433;BME280;41331;45.412;10.992;2022-09-09T12:04:09;100475.59;;;27.40;58.02
23433;BME280;41331;45.412;10.992;2022-09-09T12:09:25;100465.16;;;27.70;56.87
23433;BME280;41331;45.412;10.992;2022-09-09T12:17:29;100461.59;;;28.93;54.45
23433;BME280;41331;45.412;10.992;2022-09-09T12:28:20;100446.09;;;29.01;50.86
23433;BME280;41331;45.412;10.992;2022-09-09T12:33:46;100447.94;;;28.95;49.52
23433;BME280;41331;45.412;10.992;2022-09-09T12:36:18;100443.69;;;29.34;50.94
23433;BME280;41331;45.412;10.992;2022-09-09T12:38:47;100441.56;;;29.38;44.61
23433;BME280;41331;45.412;10.992;2022-09-09T12:41:22;100442.47;;;29.57;45.75
23433;BME280;41331;45.412;10.992;2022-09-09T12:43:50;100439.34;;;29.55;44.30
23433;BME280;41331;45.412;10.992;2022-09-09T12:46:35;100437.88;;;29.51;39.81
23433;BME280;41331;45.412;10.992;2022-09-09T12:49:03;100440.69;;;29.51;40.01
23433;BME280;41331;45.412;10.992;2022-09-09T12:51:32;100429.25;;;29.67;42.54
23433;BME280;41331;45.412;10.992;2022-09-09T12:54:00;100434.31;;;29.81;37.93
23433;BME280;41331;45.412;10.992;2022-09-09T12:56:30;100431.34;;;29.76;39.22
23433;BME280;41331;45.412;10.992;2022-09-09T12:58:58;100424.50;;;29.86;39.41
23433;BME280;41331;45.412;10.992;2022-09-09T13:01:30;100429.66;;;29.78;39.71
23433;BME280;41331;45.412;10.992;2022-09-09T13:03:58;100432.44;;;29.78;41.30
23433;BME280;41331;45.412;10.992;2022-09-09T13:06:28;100422.66;;;29.83;35.80
23433;BME280;41331;45.412;10.992;2022-09-09T13:08:58;100422.97;;;30.25;35.77
23433;BME280;41331;45.412;10.992;2022-09-09T13:11:30;100424.47;;;30.08;36.86
23433;BME280;41331;45.412;10.992;2022-09-09T13:14:00;100422.66;;;30.32;35.76
23433;BME280;41331;45.412;10.992;2022-09-09T13:16:30;100413.34;;;29.95;36.49
23433;BME280;41331;45.412;10.992;2022-09-09T13:19:14;100422.09;;;30.06;38.71
23433;BME280;41331;45.412;10.992;2022-09-09T13:21:42;100415.75;;;30.15;39.17
23433;BME280;41331;45.412;10.992;2022-09-09T13:24:31;100411.59;;;30.29;42.25
23433;BME280;41331;45.412;10.992;2022-09-09T13:29:54;100412.53;;;30.44;38.22
23433;BME280;41331;45.412;10.992;2022-09-09T13:32:24;100406.28;;;30.31;39.57
23433;BME280;41331;45.412;10.992;2022-09-09T13:34:59;100411.78;;;30.53;40.24
23433;BME280;41331;45.412;10.992;2022-09-09T13:37:35;100412.84;;;30.46;41.60
23433;BME280;41331;45.412;10.992;2022-09-09T13:40:17;100411.13;;;30.39;41.00
23433;BME280;41331;45.412;10.992;2022-09-09T13:42:45;100405.41;;;30.12;41.34
23433;BME280;41331;45.412;10.992;2022-09-09T13:45:19;100409.88;;;30.31;40.11
23433;BME280;41331;45.412;10.992;2022-09-09T13:47:49;100402.50;;;30.15;41.68
23433;BME280;41331;45.412;10.992;2022-09-09T13:50:24;100406.50;;;30.05;39.93
23433;BME280;41331;45.412;10.992;2022-09-09T13:52:54;100396.69;;;30.10;40.13
23433;BME280;41331;45.412;10.992;2022-09-09T13:55:23;100395.81;;;30.13;41.69
23433;BME280;41331;45.412;10.992;2022-09-09T13:57:55;100393.78;;;30.32;41.70
23433;BME280;41331;45.412;10.992;2022-09-09T14:00:23;100388.69;;;30.58;40.15
23433;BME280;41331;45.412;10.992;2022-09-09T14:02:51;100389.00;;;30.51;40.95
23433;BME280;41331;45.412;10.992;2022-09-09T14:05:19;100388.34;;;30.28;41.67
23433;BME280;41331;45.412;10.992;2022-09-09T14:07:46;100391.63;;;30.17;42.21
23433;BME280;41331;45.412;10.992;2022-09-09T14:10:19;100392.88;;;30.35;42.85
23433;BME280;41331;45.412;10.992;2022-09-09T14:12:46;100386.16;;;30.23;44.02
23433;BME280;41331;45.412;10.992;2022-09-09T14:15:14;100384.66;;;29.29;47.75
23433;BME280;41331;45.412;10.992;2022-09-09T14:17:42;100378.84;;;28.79;48.85
23433;BME280;41331;45.412;10.992;2022-09-09T14:20:10;100386.31;;;28.95;50.04
23433;BME280;41331;45.412;10.992;2022-09-09T14:22:38;100389.44;;;29.19;47.62
23433;BME280;41331;45.412;10.992;2022-09-09T14:25:08;100389.72;;;29.43;47.47
23433;BME280;41331;45.412;10.992;2022-09-09T14:27:36;100379.06;;;29.29;46.56
23433;BME280;41331;45.412;10.992;2022-09-09T14:30:03;100384.28;;;29.49;46.78
23433;BME280;41331;45.412;10.992;2022-09-09T14:32:31;100401.03;;;29.61;46.68
23433;BME280;41331;45.412;10.992;2022-09-09T14:35:00;100393.91;;;29.16;47.46
23433;BME280;41331;45.412;10.992;2022-09-09T14:37:28;100398.94;;;29.00;46.53
23433;BME280;41331;45.412;10.992;2022-09-09T14:39:57;100397.88;;;28.84;47.20
23433;BME280;41331;45.412;10.992;2022-09-09T14:42:25;100393.88;;;29.07;47.41
23433;BME280;41331;45.412;10.992;2022-09-09T14:44:53;100392.94;;;28.88;47.51
23433;BME280;41331;45.412;10.992;2022-09-09T14:47:21;100393.81;;;28.63;48.93
23433;BME280;41331;45.412;10.992;2022-09-09T14:49:49;100404.22;;;28.63;48.22
23433;BME280;41331;45.412;10.992;2022-09-09T14:52:17;100388.41;;;28.69;47.55
23433;BME280;41331;45.412;10.992;2022-09-09T14:54:44;100398.41;;;28.92;47.00
23433;BME280;41331;45.412;10.992;2022-09-09T14:57:11;100393.25;;;28.90;46.65
23433;BME280;41331;45.412;10.992;2022-09-09T14:59:38;100395.81;;;28.98;45.84
23433;BME280;41331;45.412;10.992;2022-09-09T15:02:08;100400.97;;;28.64;46.38
23433;BME280;41331;45.412;10.992;2022-09-09T15:04:36;100397.31;;;28.55;46.56
23433;BME280;41331;45.412;10.992;2022-09-09T15:07:03;100389.84;;;28.39;45.90
23433;BME280;41331;45.412;10.992;2022-09-09T15:09:31;100396.88;;;28.31;46.77